createdAt,value
2019-03-27T00:01:47.381Z,8.00
2019-03-27T00:04:13.524Z,8.00
2019-03-27T00:06:39.692Z,8.00
2019-03-27T00:09:06.051Z,8.00
2019-03-27T00:11:33.014Z,8.00
2019-03-27T00:13:59.163Z,8.00
2019-03-27T00:16:25.319Z,7.90
2019-03-27T00:18:51.467Z,8.00
2019-03-27T00:21:17.619Z,8.00
2019-03-27T00:23:44.020Z,7.90
2019-03-27T00:26:10.741Z,7.80
2019-03-27T00:28:37.005Z,7.80
2019-03-27T00:31:03.147Z,7.70
2019-03-27T00:33:29.362Z,7.70
2019-03-27T00:35:55.505Z,7.70
2019-03-27T00:38:21.658Z,7.70
2019-03-27T00:40:48.026Z,7.70
2019-03-27T00:43:14.348Z,7.70
2019-03-27T00:45:40.484Z,7.70
2019-03-27T00:48:06.640Z,7.60
2019-03-27T00:50:33.095Z,7.60
2019-03-27T00:52:59.248Z,7.60
2019-03-27T00:55:26.391Z,7.60
2019-03-27T00:57:53.548Z,7.50
2019-03-27T01:00:28.796Z,7.50
2019-03-27T01:02:54.954Z,7.50
2019-03-27T01:05:21.315Z,7.50
2019-03-27T01:07:47.666Z,7.50
2019-03-27T01:10:14.388Z,7.50
2019-03-27T01:12:40.543Z,7.50
2019-03-27T01:15:07.101Z,7.50
2019-03-27T01:17:33.268Z,7.50
2019-03-27T01:19:59.437Z,7.40
2019-03-27T01:22:26.589Z,7.50
2019-03-27T01:24:52.746Z,7.50
2019-03-27T01:27:18.891Z,7.40
2019-03-27T01:29:45.052Z,7.50
2019-03-27T01:32:11.199Z,7.50
2019-03-27T01:34:37.356Z,7.40
2019-03-27T01:37:03.512Z,7.40
2019-03-27T01:39:29.663Z,7.40
2019-03-27T01:41:55.808Z,7.40
2019-03-27T01:44:22.307Z,7.40
2019-03-27T01:46:48.454Z,7.40
2019-03-27T01:49:14.615Z,7.30
2019-03-27T01:51:40.769Z,7.30
2019-03-27T01:54:06.919Z,7.30
2019-03-27T01:56:33.066Z,7.30
2019-03-27T01:58:59.226Z,7.30
2019-03-27T02:01:25.379Z,7.30
2019-03-27T02:03:51.543Z,7.30
2019-03-27T02:06:17.695Z,7.20
2019-03-27T02:08:43.858Z,7.20
2019-03-27T02:11:10.295Z,7.10
2019-03-27T02:13:36.460Z,7.10
2019-03-27T02:16:07.075Z,7.00
2019-03-27T02:18:30.668Z,7.00
2019-03-27T02:20:56.820Z,6.90
2019-03-27T02:23:22.967Z,6.90
2019-03-27T02:25:49.116Z,6.90
2019-03-27T02:28:15.268Z,6.90
2019-03-27T02:30:41.429Z,6.90
2019-03-27T02:33:07.577Z,6.90
2019-03-27T02:35:33.736Z,6.90
2019-03-27T02:37:59.885Z,6.90
2019-03-27T02:40:26.043Z,6.90
2019-03-27T02:42:52.193Z,6.80
2019-03-27T02:45:18.339Z,6.80
2019-03-27T02:47:44.487Z,6.80
2019-03-27T02:50:10.640Z,6.80
2019-03-27T02:52:36.768Z,6.80
2019-03-27T02:55:06.231Z,6.80
2019-03-27T02:57:32.367Z,6.70
2019-03-27T02:59:58.515Z,6.70
2019-03-27T03:02:24.647Z,6.70
2019-03-27T03:04:50.802Z,6.70
2019-03-27T03:07:16.936Z,6.60
2019-03-27T03:09:43.079Z,6.60
2019-03-27T03:12:09.264Z,6.50
2019-03-27T03:14:35.403Z,6.50
2019-03-27T03:17:01.544Z,6.50
2019-03-27T03:19:28.778Z,6.50
2019-03-27T03:21:54.922Z,6.40
2019-03-27T03:24:21.360Z,6.40
2019-03-27T03:26:51.051Z,6.30
2019-03-27T03:29:15.565Z,6.30
2019-03-27T03:31:41.712Z,6.30
2019-03-27T03:34:07.860Z,6.20
2019-03-27T03:36:34.354Z,6.20
2019-03-27T03:39:00.481Z,6.20
2019-03-27T03:41:26.992Z,6.10
2019-03-27T03:43:53.295Z,6.10
2019-03-27T03:46:19.785Z,6.10
2019-03-27T03:48:46.924Z,6.10
2019-03-27T03:51:13.276Z,6.10
2019-03-27T03:53:39.540Z,6.10
2019-03-27T03:56:06.486Z,6.10
2019-03-27T03:58:35.345Z,6.10
2019-03-27T04:01:01.693Z,6.10
2019-03-27T04:03:29.116Z,6.10
2019-03-27T04:05:55.366Z,6.10
2019-03-27T04:08:21.514Z,6.00
2019-03-27T04:10:47.662Z,6.00
2019-03-27T04:13:14.906Z,6.10
2019-03-27T04:15:42.151Z,6.10
2019-03-27T04:18:08.620Z,6.10
2019-03-27T04:20:34.773Z,6.20
2019-03-27T04:23:00.917Z,6.20
2019-03-27T04:25:28.072Z,6.20
2019-03-27T04:27:54.307Z,6.20
2019-03-27T04:30:20.458Z,6.20
2019-03-27T04:32:46.607Z,6.20
2019-03-27T04:35:12.741Z,6.20
2019-03-27T04:37:39.019Z,6.20
2019-03-27T04:40:05.361Z,6.20
2019-03-27T04:42:31.507Z,6.20
2019-03-27T04:44:57.750Z,6.20
2019-03-27T04:47:32.177Z,6.20
2019-03-27T04:49:51.943Z,6.20
2019-03-27T04:52:18.099Z,6.20
2019-03-27T04:54:44.231Z,6.10
2019-03-27T04:57:11.378Z,6.10
2019-03-27T04:59:37.767Z,6.10
2019-03-27T05:02:06.497Z,6.10
2019-03-27T05:04:33.666Z,6.00
2019-03-27T05:06:59.806Z,6.00
2019-03-27T05:09:25.955Z,6.00
2019-03-27T05:11:52.107Z,6.00
2019-03-27T05:14:18.246Z,5.90
2019-03-27T05:16:44.379Z,6.00
2019-03-27T05:19:10.551Z,5.90
2019-03-27T05:21:36.703Z,5.90
2019-03-27T05:24:03.036Z,5.90
2019-03-27T05:26:29.170Z,5.90
2019-03-27T05:28:55.310Z,5.90
2019-03-27T05:31:21.451Z,5.90
2019-03-27T05:33:47.851Z,5.90
2019-03-27T05:36:13.992Z,5.80
2019-03-27T05:38:40.137Z,5.80
2019-03-27T05:41:06.279Z,5.80
2019-03-27T05:43:32.656Z,5.80
2019-03-27T05:45:58.799Z,5.80
2019-03-27T05:48:24.985Z,5.80
2019-03-27T05:50:51.607Z,5.80
2019-03-27T05:53:17.750Z,5.80
2019-03-27T05:55:43.897Z,5.80
2019-03-27T05:58:10.049Z,5.80
2019-03-27T06:00:36.479Z,5.80
2019-03-27T06:03:03.629Z,5.80
2019-03-27T06:05:29.783Z,5.90
2019-03-27T06:07:55.932Z,5.90
2019-03-27T06:10:22.095Z,5.90
2019-03-27T06:12:48.230Z,6.00
2019-03-27T06:15:14.655Z,6.00
2019-03-27T06:17:40.810Z,6.10
2019-03-27T06:20:09.206Z,6.10
2019-03-27T06:22:35.339Z,6.30
2019-03-27T06:25:01.528Z,6.60
2019-03-27T06:27:27.659Z,7.00
2019-03-27T06:29:53.814Z,7.30
2019-03-27T06:32:19.950Z,7.70
2019-03-27T06:34:46.442Z,8.00
2019-03-27T06:37:13.599Z,8.30
2019-03-27T06:39:40.011Z,8.70
2019-03-27T06:42:06.142Z,8.90
2019-03-27T06:44:32.290Z,9.30
2019-03-27T06:46:58.704Z,9.30
2019-03-27T06:49:24.855Z,9.30
2019-03-27T06:51:51.992Z,9.10
2019-03-27T06:54:18.135Z,9.30
2019-03-27T06:56:44.271Z,9.10
2019-03-27T06:59:10.420Z,9.40
2019-03-27T07:01:36.924Z,9.60
2019-03-27T07:04:10.515Z,9.40
2019-03-27T07:06:31.608Z,9.20
2019-03-27T07:08:57.770Z,9.10
2019-03-27T07:11:23.952Z,9.10
2019-03-27T07:13:50.088Z,9.40
2019-03-27T07:16:16.243Z,9.30
2019-03-27T07:18:42.379Z,9.20
2019-03-27T07:21:08.772Z,9.10
2019-03-27T07:23:35.219Z,9.10
2019-03-27T07:26:01.470Z,9.30
2019-03-27T07:28:27.622Z,9.20
2019-03-27T07:30:53.767Z,9.30
2019-03-27T07:33:19.932Z,9.30
2019-03-27T07:35:46.077Z,9.50
2019-03-27T07:38:12.470Z,9.30
2019-03-27T07:40:38.851Z,9.50
2019-03-27T07:43:04.987Z,9.80
2019-03-27T07:45:31.131Z,10.10
2019-03-27T07:47:57.271Z,10.50
2019-03-27T07:50:23.418Z,10.40
2019-03-27T07:52:49.552Z,10.70
2019-03-27T07:55:19.759Z,10.80
2019-03-27T07:57:43.753Z,10.30
2019-03-27T08:00:16.748Z,10.70
2019-03-27T08:02:43.087Z,11.30
2019-03-27T08:05:09.732Z,11.80
2019-03-27T08:07:36.123Z,11.40
2019-03-27T08:10:04.967Z,11.90
2019-03-27T08:12:31.112Z,12.00
2019-03-27T08:14:57.259Z,12.00
2019-03-27T08:17:23.419Z,12.60
2019-03-27T08:19:49.826Z,12.70
2019-03-27T08:22:16.254Z,11.80
2019-03-27T08:24:42.406Z,11.80
2019-03-27T08:27:08.538Z,11.80
2019-03-27T08:29:34.683Z,11.60
2019-03-27T08:32:00.929Z,12.30
2019-03-27T08:34:27.079Z,13.00
2019-03-27T08:36:53.227Z,12.90
2019-03-27T08:39:19.364Z,13.10
2019-03-27T08:41:45.554Z,12.60
2019-03-27T08:44:11.699Z,13.10
2019-03-27T08:46:37.866Z,12.90
2019-03-27T08:49:04.002Z,12.10
2019-03-27T08:51:31.142Z,11.90
2019-03-27T08:53:57.285Z,11.50
2019-03-27T08:56:23.445Z,11.40
2019-03-27T08:58:49.592Z,11.00
2019-03-27T09:01:15.735Z,11.10
2019-03-27T09:03:41.966Z,11.40
2019-03-27T09:06:09.122Z,11.80
2019-03-27T09:08:35.275Z,12.60
2019-03-27T09:11:04.508Z,13.00
2019-03-27T09:13:29.459Z,14.00
2019-03-27T09:15:55.615Z,13.50
2019-03-27T09:18:21.780Z,13.00
2019-03-27T09:20:48.037Z,12.40
2019-03-27T09:23:14.195Z,12.80
2019-03-27T09:25:40.679Z,12.30
2019-03-27T09:28:08.131Z,12.30
2019-03-27T09:30:34.307Z,11.90
2019-03-27T09:33:00.438Z,11.50
2019-03-27T09:35:26.609Z,11.70
2019-03-27T09:37:52.764Z,11.30
2019-03-27T09:40:18.926Z,11.30
2019-03-27T09:42:45.091Z,11.30
2019-03-27T09:45:12.730Z,11.50
2019-03-27T09:47:38.991Z,11.20
2019-03-27T09:50:06.439Z,11.20
2019-03-27T09:52:32.588Z,11.10
2019-03-27T09:54:58.730Z,10.90
2019-03-27T09:57:24.901Z,10.90
2019-03-27T09:59:51.335Z,11.10
2019-03-27T10:02:17.492Z,11.30
2019-03-27T10:04:43.630Z,11.40
2019-03-27T10:07:10.026Z,11.50
2019-03-27T10:09:36.171Z,11.60
2019-03-27T10:12:02.740Z,11.50
2019-03-27T10:14:29.126Z,11.60
2019-03-27T10:16:55.281Z,11.80
2019-03-27T10:19:21.443Z,12.00
2019-03-27T10:21:47.590Z,11.90
2019-03-27T10:24:14.034Z,12.30
2019-03-27T10:26:42.603Z,12.20
2019-03-27T10:29:08.507Z,12.00
2019-03-27T10:31:34.708Z,12.10
2019-03-27T10:34:00.847Z,11.90
2019-03-27T10:36:27.001Z,11.90
2019-03-27T10:38:53.140Z,11.90
2019-03-27T10:41:19.333Z,11.70
2019-03-27T10:43:45.805Z,11.70
2019-03-27T10:46:11.957Z,11.50
2019-03-27T10:48:51.553Z,11.40
2019-03-27T10:51:06.199Z,11.50
2019-03-27T10:53:32.363Z,11.60
2019-03-27T10:55:58.550Z,11.60
2019-03-27T10:58:26.625Z,11.60
2019-03-27T11:00:52.799Z,11.60
2019-03-27T11:03:19.960Z,12.10
2019-03-27T11:05:46.103Z,12.10
2019-03-27T11:08:12.252Z,11.90
2019-03-27T11:10:38.439Z,12.00
2019-03-27T11:13:04.583Z,11.90
2019-03-27T11:15:30.980Z,12.50
2019-03-27T11:17:57.330Z,12.70
2019-03-27T11:20:30.875Z,12.70
2019-03-27T11:22:51.523Z,12.90
2019-03-27T11:25:17.767Z,12.50
2019-03-27T11:27:43.917Z,12.20
2019-03-27T11:30:10.762Z,12.30
2019-03-27T11:32:37.006Z,12.50
2019-03-27T11:35:04.555Z,12.30
2019-03-27T11:37:31.023Z,12.60
2019-03-27T11:39:57.184Z,12.20
2019-03-27T11:42:23.341Z,11.70
2019-03-27T11:44:49.863Z,11.80
2019-03-27T11:47:16.095Z,12.00
2019-03-27T11:49:42.334Z,11.90
2019-03-27T11:52:09.462Z,12.00
2019-03-27T11:54:35.592Z,12.20
2019-03-27T11:57:01.995Z,12.20
2019-03-27T11:59:28.143Z,12.20
2019-03-27T12:01:54.276Z,12.50
2019-03-27T12:04:20.415Z,12.50
2019-03-27T12:06:46.558Z,12.50
2019-03-27T12:09:12.711Z,12.40
2019-03-27T12:11:57.067Z,12.90
2019-03-27T12:14:23.214Z,13.20
2019-03-27T12:16:50.354Z,13.50
2019-03-27T12:19:16.487Z,13.50
2019-03-27T12:21:42.902Z,13.90
2019-03-27T12:24:10.050Z,14.10
2019-03-27T12:26:36.497Z,13.90
2019-03-27T12:29:02.639Z,13.90
2019-03-27T12:31:28.786Z,13.70
2019-03-27T12:33:54.931Z,13.80
2019-03-27T12:36:21.077Z,13.70
2019-03-27T12:38:47.226Z,13.40
2019-03-27T12:41:13.356Z,13.40
2019-03-27T12:43:39.543Z,13.00
2019-03-27T12:46:06.783Z,13.10
2019-03-27T12:48:32.943Z,13.10
2019-03-27T12:51:12.123Z,13.00
2019-03-27T12:53:27.467Z,13.30
2019-03-27T12:55:53.614Z,13.20
2019-03-27T12:58:19.749Z,13.40
2019-03-27T13:00:45.889Z,13.10
2019-03-27T13:03:12.274Z,13.10
2019-03-27T13:05:38.410Z,13.10
2019-03-27T13:08:05.662Z,13.00
2019-03-27T13:10:31.802Z,13.00
2019-03-27T13:12:57.946Z,13.10
2019-03-27T13:15:24.091Z,13.20
2019-03-27T13:17:50.560Z,13.30
2019-03-27T13:20:17.107Z,13.00
2019-03-27T13:22:43.537Z,13.00
2019-03-27T13:25:09.889Z,13.10
2019-03-27T13:27:36.459Z,12.70
2019-03-27T13:30:07.134Z,12.60
2019-03-27T13:32:33.572Z,12.80
2019-03-27T13:34:59.736Z,12.50
2019-03-27T13:37:26.144Z,13.00
2019-03-27T13:39:52.322Z,13.10
2019-03-27T13:42:18.805Z,13.10
2019-03-27T13:44:44.958Z,13.30
2019-03-27T13:47:11.214Z,13.30
2019-03-27T13:49:37.562Z,13.00
2019-03-27T13:52:03.811Z,13.10
2019-03-27T13:54:29.959Z,13.30
2019-03-27T13:56:56.087Z,13.50
2019-03-27T13:59:22.243Z,13.40
2019-03-27T14:01:48.380Z,13.30
2019-03-27T14:04:14.530Z,13.30
2019-03-27T14:06:40.660Z,12.90
2019-03-27T14:09:07.016Z,12.80
2019-03-27T14:11:33.250Z,13.00
2019-03-27T14:14:10.544Z,12.90
2019-03-27T14:16:27.442Z,13.00
2019-03-27T14:18:53.691Z,13.10
2019-03-27T14:21:23.329Z,13.40
2019-03-27T14:23:48.895Z,13.30
2019-03-27T14:26:15.042Z,13.10
2019-03-27T14:28:41.197Z,13.20
2019-03-27T14:31:07.662Z,13.40
2019-03-27T14:33:33.794Z,13.10
2019-03-27T14:35:59.947Z,13.30
2019-03-27T14:38:26.088Z,13.40
2019-03-27T14:40:52.476Z,13.40
2019-03-27T14:43:18.907Z,13.50
2019-03-27T14:45:45.053Z,13.40
2019-03-27T14:48:11.200Z,13.60
2019-03-27T14:50:37.595Z,13.80
2019-03-27T14:53:04.025Z,13.70
2019-03-27T14:55:30.172Z,13.70
2019-03-27T14:57:56.311Z,13.80
2019-03-27T15:00:22.559Z,13.60
2019-03-27T15:02:48.706Z,13.30
2019-03-27T15:05:15.047Z,13.50
2019-03-27T15:07:41.175Z,13.60
2019-03-27T15:10:07.975Z,13.30
2019-03-27T15:12:34.617Z,13.20
2019-03-27T15:15:00.766Z,13.00
2019-03-27T15:17:26.907Z,13.00
2019-03-27T15:19:53.103Z,12.60
2019-03-27T15:22:22.655Z,12.60
2019-03-27T15:24:47.284Z,12.70
2019-03-27T15:27:13.445Z,13.00
2019-03-27T15:29:39.574Z,13.10
2019-03-27T15:32:05.848Z,13.10
2019-03-27T15:34:32.281Z,13.20
2019-03-27T15:36:58.431Z,13.00
2019-03-27T15:39:24.668Z,12.80
2019-03-27T15:41:51.055Z,12.90
2019-03-27T15:44:17.195Z,12.80
2019-03-27T15:46:43.339Z,12.90
2019-03-27T15:49:09.486Z,12.90
2019-03-27T15:51:35.627Z,13.10
2019-03-27T15:54:02.099Z,13.10
2019-03-27T15:56:28.243Z,13.20
2019-03-27T15:58:56.282Z,13.00
2019-03-27T16:01:22.578Z,13.20
2019-03-27T16:03:48.734Z,13.40
2019-03-27T16:06:15.190Z,13.50
2019-03-27T16:08:41.371Z,13.50
2019-03-27T16:11:07.507Z,13.20
2019-03-27T16:13:33.655Z,13.20
2019-03-27T16:15:59.795Z,13.00
2019-03-27T16:18:26.224Z,13.10
2019-03-27T16:20:52.371Z,13.10
2019-03-27T16:23:18.502Z,13.30
2019-03-27T16:25:44.639Z,13.30
2019-03-27T16:28:10.987Z,13.20
2019-03-27T16:30:37.367Z,13.10
2019-03-27T16:33:03.799Z,12.90
2019-03-27T16:35:30.039Z,12.90
2019-03-27T16:37:56.303Z,13.00
2019-03-27T16:40:42.922Z,13.10
2019-03-27T16:43:09.177Z,12.90
2019-03-27T16:45:35.315Z,12.70
2019-03-27T16:48:01.466Z,12.70
2019-03-27T16:50:28.594Z,12.70
2019-03-27T16:53:03.501Z,12.80
2019-03-27T16:55:22.786Z,12.90
2019-03-27T16:57:51.318Z,12.80
2019-03-27T17:00:17.687Z,12.80
2019-03-27T17:02:43.822Z,12.80
2019-03-27T17:05:09.967Z,12.80
2019-03-27T17:07:36.103Z,12.80
2019-03-27T17:10:05.283Z,12.80
2019-03-27T17:12:31.672Z,12.70
2019-03-27T17:14:58.158Z,12.70
2019-03-27T17:17:42.675Z,12.80
2019-03-27T17:20:10.630Z,12.60
2019-03-27T17:22:36.763Z,12.60
2019-03-27T17:25:05.119Z,12.60
2019-03-27T17:27:31.254Z,12.70
2019-03-27T17:29:57.402Z,12.60
2019-03-27T17:32:23.551Z,12.60
2019-03-27T17:34:51.925Z,12.60
2019-03-27T17:37:17.743Z,12.60
2019-03-27T17:39:43.903Z,12.60
2019-03-27T17:42:10.318Z,12.50
2019-03-27T17:44:36.470Z,12.50
2019-03-27T17:47:02.603Z,12.50
2019-03-27T17:49:28.764Z,12.50
2019-03-27T17:51:54.916Z,12.40
2019-03-27T17:54:21.365Z,12.40
2019-03-27T17:56:48.664Z,12.40
2019-03-27T17:59:14.823Z,12.40
2019-03-27T18:01:41.359Z,12.40
2019-03-27T18:04:07.502Z,12.40
2019-03-27T18:06:34.655Z,12.40
2019-03-27T18:09:00.809Z,12.30
2019-03-27T18:11:26.943Z,12.30
2019-03-27T18:13:53.069Z,12.30
2019-03-27T18:16:19.231Z,12.30
2019-03-27T18:18:45.370Z,12.20
2019-03-27T18:21:11.527Z,12.10
2019-03-27T18:23:45.932Z,12.10
2019-03-27T18:26:05.721Z,12.10
2019-03-27T18:28:32.165Z,12.20
2019-03-27T18:30:58.311Z,12.10
2019-03-27T18:33:24.453Z,12.10
2019-03-27T18:35:50.857Z,12.00
2019-03-27T18:38:16.986Z,12.10
2019-03-27T18:40:43.236Z,12.10
2019-03-27T18:43:09.387Z,12.10
2019-03-27T18:45:35.558Z,12.00
2019-03-27T18:48:01.798Z,12.00
2019-03-27T18:50:28.202Z,12.00
2019-03-27T18:52:54.639Z,11.90
2019-03-27T18:55:26.259Z,11.90
2019-03-27T18:57:59.544Z,12.00
2019-03-27T19:00:17.444Z,11.90
2019-03-27T19:02:43.659Z,11.90
2019-03-27T19:05:10.024Z,11.90
2019-03-27T19:07:36.153Z,11.90
2019-03-27T19:10:04.416Z,11.80
2019-03-27T19:12:32.308Z,11.80
2019-03-27T19:14:58.444Z,11.80
2019-03-27T19:17:24.601Z,11.80
2019-03-27T19:19:50.735Z,11.80
2019-03-27T19:22:16.888Z,11.80
2019-03-27T19:24:43.024Z,11.80
2019-03-27T19:27:09.189Z,11.70
2019-03-27T19:29:35.423Z,11.70
2019-03-27T19:32:01.595Z,11.70
2019-03-27T19:34:27.750Z,11.70
2019-03-27T19:36:53.910Z,11.60
2019-03-27T19:39:20.058Z,11.60
2019-03-27T19:41:46.315Z,11.60
2019-03-27T19:44:12.696Z,11.60
2019-03-27T19:46:38.955Z,11.60
2019-03-27T19:49:05.373Z,11.60
2019-03-27T19:51:32.535Z,11.60
2019-03-27T19:53:58.672Z,11.70
2019-03-27T19:56:24.818Z,11.60
2019-03-27T19:58:51.308Z,11.60
2019-03-27T20:01:17.443Z,11.60
2019-03-27T20:03:43.596Z,11.60
2019-03-27T20:06:09.809Z,11.60
2019-03-27T20:08:36.194Z,11.60
2019-03-27T20:11:02.332Z,11.60
2019-03-27T20:13:28.503Z,11.50
2019-03-27T20:15:54.652Z,11.50
2019-03-27T20:18:20.804Z,11.50
2019-03-27T20:20:46.941Z,11.50
2019-03-27T20:23:15.195Z,11.60
2019-03-27T20:25:41.160Z,11.60
2019-03-27T20:28:07.593Z,11.50
2019-03-27T20:30:33.754Z,11.50
2019-03-27T20:33:00.184Z,11.50
2019-03-27T20:35:26.580Z,11.50
2019-03-27T20:37:52.724Z,11.30
2019-03-27T20:40:19.087Z,11.40
2019-03-27T20:42:45.471Z,11.40
2019-03-27T20:45:12.059Z,11.40
2019-03-27T20:47:38.539Z,11.40
2019-03-27T20:50:05.587Z,11.30
2019-03-27T20:52:31.751Z,11.20
2019-03-27T20:54:57.998Z,11.30
2019-03-27T20:57:24.126Z,11.30
2019-03-27T20:59:50.382Z,11.30
2019-03-27T21:02:16.527Z,11.30
2019-03-27T21:04:42.919Z,11.30
2019-03-27T21:07:09.075Z,11.30
2019-03-27T21:09:35.228Z,11.40
2019-03-27T21:12:01.366Z,11.30
2019-03-27T21:14:27.527Z,11.40
2019-03-27T21:16:54.000Z,11.40
2019-03-27T21:19:20.154Z,11.30
2019-03-27T21:21:46.338Z,11.20
2019-03-27T21:24:12.583Z,11.20
2019-03-27T21:26:38.774Z,11.10
2019-03-27T21:29:05.039Z,11.10
2019-03-27T21:31:31.250Z,11.10
2019-03-27T21:33:57.789Z,11.10
2019-03-27T21:36:24.140Z,11.10
2019-03-27T21:38:50.281Z,11.00
2019-03-27T21:41:16.419Z,11.00
2019-03-27T21:43:42.566Z,11.00
2019-03-27T21:46:08.723Z,11.00
2019-03-27T21:48:34.850Z,11.00
2019-03-27T21:51:00.995Z,11.00
2019-03-27T21:53:27.142Z,11.00
2019-03-27T21:55:53.518Z,11.10
2019-03-27T21:58:19.656Z,11.00
2019-03-27T22:00:45.802Z,11.00
2019-03-27T22:03:11.991Z,11.00
2019-03-27T22:05:38.135Z,11.10
2019-03-27T22:08:04.379Z,11.20
2019-03-27T22:10:30.819Z,11.20
2019-03-27T22:12:56.967Z,11.30
2019-03-27T22:15:23.103Z,11.30
2019-03-27T22:17:49.251Z,11.30
2019-03-27T22:20:15.387Z,11.20
2019-03-27T22:22:41.550Z,11.10
2019-03-27T22:25:07.890Z,11.10
2019-03-27T22:27:34.022Z,11.00
2019-03-27T22:30:00.365Z,11.00
2019-03-27T22:32:26.610Z,11.10
2019-03-27T22:34:52.771Z,11.10
2019-03-27T22:37:18.919Z,11.10
2019-03-27T22:39:45.055Z,11.10
2019-03-27T22:42:11.203Z,11.00
2019-03-27T22:44:37.336Z,11.10
2019-03-27T22:47:03.483Z,11.10
2019-03-27T22:49:29.617Z,11.10
2019-03-27T22:51:55.818Z,11.10
2019-03-27T22:54:21.953Z,11.10
2019-03-27T22:56:48.107Z,11.10
2019-03-27T22:59:14.250Z,11.10
2019-03-27T23:01:46.136Z,11.10
2019-03-27T23:04:12.279Z,11.10
2019-03-27T23:06:38.430Z,11.10
2019-03-27T23:09:05.226Z,11.10
2019-03-27T23:11:31.583Z,11.00
2019-03-27T23:13:58.006Z,10.90
2019-03-27T23:16:24.138Z,10.90
2019-03-27T23:18:50.278Z,11.00
2019-03-27T23:21:16.412Z,10.90
2019-03-27T23:23:42.559Z,11.00
2019-03-27T23:26:09.134Z,11.10
2019-03-27T23:28:35.662Z,11.10
2019-03-27T23:31:01.910Z,11.10
2019-03-27T23:33:28.056Z,11.00
2019-03-27T23:35:54.195Z,10.90
2019-03-27T23:38:20.343Z,10.80
2019-03-27T23:40:46.485Z,10.70
2019-03-27T23:43:12.938Z,10.70
2019-03-27T23:45:39.311Z,10.70
2019-03-27T23:48:05.803Z,10.70
2019-03-27T23:50:32.235Z,10.70
2019-03-27T23:52:58.453Z,10.80
2019-03-27T23:55:24.589Z,10.80
2019-03-27T23:57:50.835Z,10.60
